sensor_id;sensor_type;location;lat;lon;timestamp;P1;durP1;ratioP1;P2;durP2;ratioP2
22965;SDS011;11649;48.090;9.754;2023-04-06T00:00:53;9.45;;;7.28;;
22965;SDS011;11649;48.090;9.754;2023-04-06T00:03:20;9.63;;;7.32;;
22965;SDS011;11649;48.090;9.754;2023-04-06T00:05:47;10.38;;;7.85;;
22965;SDS011;11649;48.090;9.754;2023-04-06T00:08:14;9.30;;;7.47;;
22965;SDS011;11649;48.090;9.754;2023-04-06T00:10:41;10.18;;;6.60;;
22965;SDS011;11649;48.090;9.754;2023-04-06T00:13:08;7.95;;;6.82;;
22965;SDS011;11649;48.090;9.754;2023-04-06T00:15:35;10.18;;;7.63;;
22965;SDS011;11649;48.090;9.754;2023-04-06T00:18:02;10.15;;;7.55;;
22965;SDS011;11649;48.090;9.754;2023-04-06T00:20:29;8.82;;;7.05;;
22965;SDS011;11649;48.090;9.754;2023-04-06T00:22:56;9.77;;;6.95;;
22965;SDS011;11649;48.090;9.754;2023-04-06T00:25:23;11.30;;;8.38;;
22965;SDS011;11649;48.090;9.754;2023-04-06T00:27:50;10.18;;;7.38;;
22965;SDS011;11649;48.090;9.754;2023-04-06T00:30:17;10.57;;;7.60;;
22965;SDS011;11649;48.090;9.754;2023-04-06T00:32:44;9.13;;;7.05;;
22965;SDS011;11649;48.090;9.754;2023-04-06T00:35:11;10.77;;;7.60;;
22965;SDS011;11649;48.090;9.754;2023-04-06T00:37:38;12.20;;;8.20;;
22965;SDS011;11649;48.090;9.754;2023-04-06T00:40:05;11.75;;;7.82;;
22965;SDS011;11649;48.090;9.754;2023-04-06T00:42:32;11.30;;;8.55;;
22965;SDS011;11649;48.090;9.754;2023-04-06T00:44:59;11.15;;;7.97;;
22965;SDS011;11649;48.090;9.754;2023-04-06T00:47:27;12.65;;;8.30;;
22965;SDS011;11649;48.090;9.754;2023-04-06T00:49:54;12.85;;;8.30;;
22965;SDS011;11649;48.090;9.754;2023-04-06T00:52:21;12.70;;;8.60;;
22965;SDS011;11649;48.090;9.754;2023-04-06T00:54:49;12.13;;;8.57;;
22965;SDS011;11649;48.090;9.754;2023-04-06T00:57:17;10.90;;;7.88;;
22965;SDS011;11649;48.090;9.754;2023-04-06T00:59:44;13.73;;;8.75;;
22965;SDS011;11649;48.090;9.754;2023-04-06T01:02:11;16.90;;;9.88;;
22965;SDS011;11649;48.090;9.754;2023-04-06T01:04:38;15.90;;;8.32;;
22965;SDS011;11649;48.090;9.754;2023-04-06T01:07:05;17.33;;;8.63;;
22965;SDS011;11649;48.090;9.754;2023-04-06T01:09:32;16.40;;;9.55;;
22965;SDS011;11649;48.090;9.754;2023-04-06T01:11:59;20.30;;;10.63;;
22965;SDS011;11649;48.090;9.754;2023-04-06T01:14:26;16.98;;;9.85;;
22965;SDS011;11649;48.090;9.754;2023-04-06T01:16:53;19.30;;;9.98;;
22965;SDS011;11649;48.090;9.754;2023-04-06T01:19:21;18.50;;;8.90;;
22965;SDS011;11649;48.090;9.754;2023-04-06T01:21:48;16.17;;;8.98;;
22965;SDS011;11649;48.090;9.754;2023-04-06T01:24:16;16.92;;;8.85;;
22965;SDS011;11649;48.090;9.754;2023-04-06T01:26:44;17.77;;;9.00;;
22965;SDS011;11649;48.090;9.754;2023-04-06T01:29:11;18.33;;;9.98;;
22965;SDS011;11649;48.090;9.754;2023-04-06T01:31:39;17.60;;;9.98;;
22965;SDS011;11649;48.090;9.754;2023-04-06T01:34:06;18.52;;;10.35;;
22965;SDS011;11649;48.090;9.754;2023-04-06T01:36:33;18.95;;;10.02;;
22965;SDS011;11649;48.090;9.754;2023-04-06T01:39:00;17.65;;;10.02;;
22965;SDS011;11649;48.090;9.754;2023-04-06T01:41:26;17.40;;;9.55;;
22965;SDS011;11649;48.090;9.754;2023-04-06T01:43:53;18.27;;;10.30;;
22965;SDS011;11649;48.090;9.754;2023-04-06T01:46:21;20.98;;;9.80;;
22965;SDS011;11649;48.090;9.754;2023-04-06T01:48:47;20.02;;;10.20;;
22965;SDS011;11649;48.090;9.754;2023-04-06T01:51:15;19.10;;;9.60;;
22965;SDS011;11649;48.090;9.754;2023-04-06T01:53:41;17.25;;;9.65;;
22965;SDS011;11649;48.090;9.754;2023-04-06T01:56:09;16.73;;;9.95;;
22965;SDS011;11649;48.090;9.754;2023-04-06T01:58:36;16.38;;;9.43;;
22965;SDS011;11649;48.090;9.754;2023-04-06T02:01:03;20.92;;;9.90;;
22965;SDS011;11649;48.090;9.754;2023-04-06T02:03:30;18.77;;;10.02;;
22965;SDS011;11649;48.090;9.754;2023-04-06T02:05:57;13.68;;;9.05;;
22965;SDS011;11649;48.090;9.754;2023-04-06T02:08:24;14.23;;;9.57;;
22965;SDS011;11649;48.090;9.754;2023-04-06T02:10:51;14.55;;;9.50;;
22965;SDS011;11649;48.090;9.754;2023-04-06T02:13:18;17.25;;;9.57;;
22965;SDS011;11649;48.090;9.754;2023-04-06T02:15:47;13.82;;;9.00;;
22965;SDS011;11649;48.090;9.754;2023-04-06T02:18:14;15.07;;;9.63;;
22965;SDS011;11649;48.090;9.754;2023-04-06T02:20:43;14.60;;;9.57;;
22965;SDS011;11649;48.090;9.754;2023-04-06T02:23:11;15.73;;;9.60;;
22965;SDS011;11649;48.090;9.754;2023-04-06T02:25:37;15.73;;;9.88;;
22965;SDS011;11649;48.090;9.754;2023-04-06T02:28:04;16.58;;;10.50;;
22965;SDS011;11649;48.090;9.754;2023-04-06T02:30:31;15.85;;;10.00;;
22965;SDS011;11649;48.090;9.754;2023-04-06T02:32:59;17.23;;;10.07;;
22965;SDS011;11649;48.090;9.754;2023-04-06T02:35:27;13.90;;;9.20;;
22965;SDS011;11649;48.090;9.754;2023-04-06T02:37:55;15.45;;;9.65;;
22965;SDS011;11649;48.090;9.754;2023-04-06T02:40:22;15.50;;;9.80;;
22965;SDS011;11649;48.090;9.754;2023-04-06T02:42:48;15.27;;;10.20;;
22965;SDS011;11649;48.090;9.754;2023-04-06T02:45:15;13.48;;;9.32;;
22965;SDS011;11649;48.090;9.754;2023-04-06T02:47:42;16.63;;;10.57;;
22965;SDS011;11649;48.090;9.754;2023-04-06T02:50:09;18.10;;;10.18;;
22965;SDS011;11649;48.090;9.754;2023-04-06T02:52:36;14.90;;;9.80;;
22965;SDS011;11649;48.090;9.754;2023-04-06T02:55:03;17.02;;;10.13;;
22965;SDS011;11649;48.090;9.754;2023-04-06T02:57:30;17.55;;;10.05;;
22965;SDS011;11649;48.090;9.754;2023-04-06T02:59:57;14.15;;;9.60;;
22965;SDS011;11649;48.090;9.754;2023-04-06T03:02:23;14.55;;;9.43;;
22965;SDS011;11649;48.090;9.754;2023-04-06T03:04:50;14.20;;;9.43;;
22965;SDS011;11649;48.090;9.754;2023-04-06T03:07:17;14.63;;;9.93;;
22965;SDS011;11649;48.090;9.754;2023-04-06T03:09:44;14.15;;;9.60;;
22965;SDS011;11649;48.090;9.754;2023-04-06T03:12:11;14.63;;;9.40;;
22965;SDS011;11649;48.090;9.754;2023-04-06T03:14:38;14.25;;;9.95;;
22965;SDS011;11649;48.090;9.754;2023-04-06T03:17:04;19.98;;;9.93;;
22965;SDS011;11649;48.090;9.754;2023-04-06T03:19:31;16.33;;;10.05;;
22965;SDS011;11649;48.090;9.754;2023-04-06T03:21:58;13.80;;;9.38;;
22965;SDS011;11649;48.090;9.754;2023-04-06T03:24:24;14.40;;;9.75;;
22965;SDS011;11649;48.090;9.754;2023-04-06T03:26:51;12.98;;;9.35;;
22965;SDS011;11649;48.090;9.754;2023-04-06T03:29:18;14.80;;;9.38;;
22965;SDS011;11649;48.090;9.754;2023-04-06T03:31:44;13.05;;;8.90;;
22965;SDS011;11649;48.090;9.754;2023-04-06T03:34:11;15.70;;;9.65;;
22965;SDS011;11649;48.090;9.754;2023-04-06T03:36:38;16.08;;;10.18;;
22965;SDS011;11649;48.090;9.754;2023-04-06T03:39:05;14.73;;;10.00;;
22965;SDS011;11649;48.090;9.754;2023-04-06T03:41:32;16.13;;;9.90;;
22965;SDS011;11649;48.090;9.754;2023-04-06T03:43:58;13.77;;;9.38;;
22965;SDS011;11649;48.090;9.754;2023-04-06T03:46:25;14.38;;;8.98;;
22965;SDS011;11649;48.090;9.754;2023-04-06T03:48:52;13.52;;;9.15;;
22965;SDS011;11649;48.090;9.754;2023-04-06T03:51:19;12.38;;;8.68;;
22965;SDS011;11649;48.090;9.754;2023-04-06T03:53:46;15.98;;;9.57;;
22965;SDS011;11649;48.090;9.754;2023-04-06T03:56:12;14.52;;;9.38;;
22965;SDS011;11649;48.090;9.754;2023-04-06T03:58:39;14.80;;;8.88;;
22965;SDS011;11649;48.090;9.754;2023-04-06T04:01:06;14.38;;;9.63;;
22965;SDS011;11649;48.090;9.754;2023-04-06T04:03:33;12.73;;;9.15;;
22965;SDS011;11649;48.090;9.754;2023-04-06T04:05:59;14.68;;;9.55;;
22965;SDS011;11649;48.090;9.754;2023-04-06T04:08:26;14.10;;;9.63;;
22965;SDS011;11649;48.090;9.754;2023-04-06T04:10:53;14.98;;;10.27;;
22965;SDS011;11649;48.090;9.754;2023-04-06T04:13:20;16.88;;;10.52;;
22965;SDS011;11649;48.090;9.754;2023-04-06T04:15:46;16.23;;;10.48;;
22965;SDS011;11649;48.090;9.754;2023-04-06T04:18:13;14.45;;;9.82;;
22965;SDS011;11649;48.090;9.754;2023-04-06T04:20:40;15.00;;;9.57;;
22965;SDS011;11649;48.090;9.754;2023-04-06T04:23:07;15.60;;;9.82;;
22965;SDS011;11649;48.090;9.754;2023-04-06T04:25:34;15.25;;;10.13;;
22965;SDS011;11649;48.090;9.754;2023-04-06T04:28:01;15.30;;;10.65;;
22965;SDS011;11649;48.090;9.754;2023-04-06T04:30:28;16.17;;;11.18;;
22965;SDS011;11649;48.090;9.754;2023-04-06T04:32:55;17.48;;;11.23;;
22965;SDS011;11649;48.090;9.754;2023-04-06T04:35:22;18.50;;;11.20;;
22965;SDS011;11649;48.090;9.754;2023-04-06T04:37:49;18.33;;;11.25;;
22965;SDS011;11649;48.090;9.754;2023-04-06T04:40:16;21.48;;;13.93;;
22965;SDS011;11649;48.090;9.754;2023-04-06T04:42:43;24.23;;;14.48;;
22965;SDS011;11649;48.090;9.754;2023-04-06T04:45:10;22.98;;;13.77;;
22965;SDS011;11649;48.090;9.754;2023-04-06T04:47:37;21.02;;;13.02;;
22965;SDS011;11649;48.090;9.754;2023-04-06T04:50:04;15.27;;;10.13;;
22965;SDS011;11649;48.090;9.754;2023-04-06T04:52:31;15.15;;;10.25;;
22965;SDS011;11649;48.090;9.754;2023-04-06T04:54:58;17.38;;;11.82;;
22965;SDS011;11649;48.090;9.754;2023-04-06T04:57:25;19.02;;;11.20;;
22965;SDS011;11649;48.090;9.754;2023-04-06T04:59:51;19.23;;;11.93;;
22965;SDS011;11649;48.090;9.754;2023-04-06T05:02:19;18.35;;;12.50;;
22965;SDS011;11649;48.090;9.754;2023-04-06T05:04:46;18.40;;;12.48;;
22965;SDS011;11649;48.090;9.754;2023-04-06T05:07:13;21.52;;;11.98;;
22965;SDS011;11649;48.090;9.754;2023-04-06T05:09:41;18.77;;;11.55;;
22965;SDS011;11649;48.090;9.754;2023-04-06T05:12:09;17.65;;;11.88;;
22965;SDS011;11649;48.090;9.754;2023-04-06T05:14:36;19.17;;;12.18;;
22965;SDS011;11649;48.090;9.754;2023-04-06T05:17:03;19.27;;;12.35;;
22965;SDS011;11649;48.090;9.754;2023-04-06T05:19:29;21.55;;;13.60;;
22965;SDS011;11649;48.090;9.754;2023-04-06T05:21:56;19.05;;;13.07;;
22965;SDS011;11649;48.090;9.754;2023-04-06T05:24:23;19.30;;;12.85;;
22965;SDS011;11649;48.090;9.754;2023-04-06T05:26:50;18.55;;;12.30;;
22965;SDS011;11649;48.090;9.754;2023-04-06T05:29:17;18.05;;;12.55;;
22965;SDS011;11649;48.090;9.754;2023-04-06T05:31:45;19.20;;;12.55;;
22965;SDS011;11649;48.090;9.754;2023-04-06T05:34:12;17.17;;;11.77;;
22965;SDS011;11649;48.090;9.754;2023-04-06T05:36:39;16.77;;;11.23;;
22965;SDS011;11649;48.090;9.754;2023-04-06T05:39:06;15.25;;;10.35;;
22965;SDS011;11649;48.090;9.754;2023-04-06T05:41:34;14.93;;;10.98;;
22965;SDS011;11649;48.090;9.754;2023-04-06T05:44:00;16.38;;;11.75;;
22965;SDS011;11649;48.090;9.754;2023-04-06T05:46:27;19.75;;;12.05;;
22965;SDS011;11649;48.090;9.754;2023-04-06T05:48:54;18.33;;;11.82;;
22965;SDS011;11649;48.090;9.754;2023-04-06T05:51:21;15.70;;;11.20;;
22965;SDS011;11649;48.090;9.754;2023-04-06T05:53:48;15.35;;;11.18;;
22965;SDS011;11649;48.090;9.754;2023-04-06T05:56:15;17.73;;;12.68;;
22965;SDS011;11649;48.090;9.754;2023-04-06T05:58:41;24.90;;;16.30;;
22965;SDS011;11649;48.090;9.754;2023-04-06T06:01:08;24.23;;;15.18;;
22965;SDS011;11649;48.090;9.754;2023-04-06T06:03:36;32.50;;;21.20;;
22965;SDS011;11649;48.090;9.754;2023-04-06T06:06:03;26.08;;;17.58;;
22965;SDS011;11649;48.090;9.754;2023-04-06T06:08:31;32.15;;;21.30;;
22965;SDS011;11649;48.090;9.754;2023-04-06T06:10:57;34.03;;;23.35;;
22965;SDS011;11649;48.090;9.754;2023-04-06T06:13:24;34.92;;;21.70;;
22965;SDS011;11649;48.090;9.754;2023-04-06T06:15:51;33.63;;;19.85;;
22965;SDS011;11649;48.090;9.754;2023-04-06T06:18:18;33.50;;;20.73;;
22965;SDS011;11649;48.090;9.754;2023-04-06T06:20:45;26.65;;;17.00;;
22965;SDS011;11649;48.090;9.754;2023-04-06T06:23:12;23.25;;;15.23;;
22965;SDS011;11649;48.090;9.754;2023-04-06T06:25:38;22.65;;;14.90;;
22965;SDS011;11649;48.090;9.754;2023-04-06T06:28:05;24.25;;;16.40;;
22965;SDS011;11649;48.090;9.754;2023-04-06T06:30:32;22.80;;;15.63;;
22965;SDS011;11649;48.090;9.754;2023-04-06T06:32:59;23.60;;;15.65;;
22965;SDS011;11649;48.090;9.754;2023-04-06T06:35:25;21.65;;;16.05;;
22965;SDS011;11649;48.090;9.754;2023-04-06T06:37:52;24.77;;;15.40;;
22965;SDS011;11649;48.090;9.754;2023-04-06T06:40:19;21.70;;;15.65;;
22965;SDS011;11649;48.090;9.754;2023-04-06T06:42:50;22.15;;;15.43;;
22965;SDS011;11649;48.090;9.754;2023-04-06T06:45:17;17.40;;;13.48;;
22965;SDS011;11649;48.090;9.754;2023-04-06T06:47:44;19.50;;;13.57;;
22965;SDS011;11649;48.090;9.754;2023-04-06T06:50:12;23.75;;;14.52;;
22965;SDS011;11649;48.090;9.754;2023-04-06T06:52:39;16.13;;;12.05;;
22965;SDS011;11649;48.090;9.754;2023-04-06T06:55:06;17.65;;;13.30;;
22965;SDS011;11649;48.090;9.754;2023-04-06T06:57:33;17.38;;;13.52;;
22965;SDS011;11649;48.090;9.754;2023-04-06T07:00:00;20.92;;;15.02;;
22965;SDS011;11649;48.090;9.754;2023-04-06T07:02:27;18.58;;;12.15;;
22965;SDS011;11649;48.090;9.754;2023-04-06T07:04:54;16.98;;;12.13;;
22965;SDS011;11649;48.090;9.754;2023-04-06T07:07:21;19.08;;;12.52;;
22965;SDS011;11649;48.090;9.754;2023-04-06T07:09:47;17.92;;;11.73;;
22965;SDS011;11649;48.090;9.754;2023-04-06T07:12:14;16.38;;;12.23;;
22965;SDS011;11649;48.090;9.754;2023-04-06T07:14:42;16.73;;;11.23;;
22965;SDS011;11649;48.090;9.754;2023-04-06T07:17:09;18.45;;;11.20;;
22965;SDS011;11649;48.090;9.754;2023-04-06T07:19:36;19.00;;;11.57;;
22965;SDS011;11649;48.090;9.754;2023-04-06T07:22:03;16.67;;;10.85;;
22965;SDS011;11649;48.090;9.754;2023-04-06T07:24:30;16.15;;;10.85;;
22965;SDS011;11649;48.090;9.754;2023-04-06T07:26:58;14.73;;;10.93;;
22965;SDS011;11649;48.090;9.754;2023-04-06T07:29:26;16.27;;;11.50;;
22965;SDS011;11649;48.090;9.754;2023-04-06T07:31:54;16.10;;;10.75;;
22965;SDS011;11649;48.090;9.754;2023-04-06T07:34:21;13.60;;;10.05;;
22965;SDS011;11649;48.090;9.754;2023-04-06T07:36:48;15.02;;;10.23;;
22965;SDS011;11649;48.090;9.754;2023-04-06T07:39:15;12.93;;;9.93;;
22965;SDS011;11649;48.090;9.754;2023-04-06T07:41:41;16.60;;;11.48;;
22965;SDS011;11649;48.090;9.754;2023-04-06T07:44:08;16.88;;;11.68;;
22965;SDS011;11649;48.090;9.754;2023-04-06T07:46:35;17.35;;;11.10;;
22965;SDS011;11649;48.090;9.754;2023-04-06T07:49:02;15.48;;;9.85;;
22965;SDS011;11649;48.090;9.754;2023-04-06T07:51:29;12.30;;;9.02;;
22965;SDS011;11649;48.090;9.754;2023-04-06T07:53:56;11.95;;;8.80;;
22965;SDS011;11649;48.090;9.754;2023-04-06T07:56:23;13.63;;;10.02;;
22965;SDS011;11649;48.090;9.754;2023-04-06T07:58:51;14.95;;;9.73;;
22965;SDS011;11649;48.090;9.754;2023-04-06T08:01:19;12.73;;;9.40;;
22965;SDS011;11649;48.090;9.754;2023-04-06T08:03:46;14.45;;;9.88;;
22965;SDS011;11649;48.090;9.754;2023-04-06T08:06:13;16.52;;;10.05;;
22965;SDS011;11649;48.090;9.754;2023-04-06T08:08:41;14.52;;;8.98;;
22965;SDS011;11649;48.090;9.754;2023-04-06T08:11:08;15.20;;;10.82;;
22965;SDS011;11649;48.090;9.754;2023-04-06T08:13:35;16.15;;;9.85;;
22965;SDS011;11649;48.090;9.754;2023-04-06T08:16:02;14.40;;;9.43;;
22965;SDS011;11649;48.090;9.754;2023-04-06T08:18:29;14.32;;;9.25;;
22965;SDS011;11649;48.090;9.754;2023-04-06T08:20:56;16.38;;;9.93;;
22965;SDS011;11649;48.090;9.754;2023-04-06T08:23:23;13.07;;;9.38;;
22965;SDS011;11649;48.090;9.754;2023-04-06T08:25:49;14.32;;;8.80;;
22965;SDS011;11649;48.090;9.754;2023-04-06T08:28:18;13.82;;;9.88;;
22965;SDS011;11649;48.090;9.754;2023-04-06T08:30:45;20.55;;;10.98;;
22965;SDS011;11649;48.090;9.754;2023-04-06T08:33:12;15.02;;;10.40;;
22965;SDS011;11649;48.090;9.754;2023-04-06T08:35:39;15.73;;;11.30;;
22965;SDS011;11649;48.090;9.754;2023-04-06T08:38:06;13.65;;;9.30;;
22965;SDS011;11649;48.090;9.754;2023-04-06T08:40:37;15.75;;;10.35;;
22965;SDS011;11649;48.090;9.754;2023-04-06T08:43:06;15.65;;;10.15;;
22965;SDS011;11649;48.090;9.754;2023-04-06T08:45:35;17.10;;;11.00;;
22965;SDS011;11649;48.090;9.754;2023-04-06T08:48:04;15.80;;;10.63;;
22965;SDS011;11649;48.090;9.754;2023-04-06T08:50:33;17.15;;;10.25;;
22965;SDS011;11649;48.090;9.754;2023-04-06T08:53:00;12.63;;;9.65;;
22965;SDS011;11649;48.090;9.754;2023-04-06T08:55:27;15.60;;;10.70;;
22965;SDS011;11649;48.090;9.754;2023-04-06T08:57:54;16.17;;;10.55;;
22965;SDS011;11649;48.090;9.754;2023-04-06T09:00:21;15.13;;;10.02;;
22965;SDS011;11649;48.090;9.754;2023-04-06T09:02:50;15.10;;;9.73;;
22965;SDS011;11649;48.090;9.754;2023-04-06T09:05:21;15.60;;;9.68;;
22965;SDS011;11649;48.090;9.754;2023-04-06T09:07:51;12.90;;;9.38;;
22965;SDS011;11649;48.090;9.754;2023-04-06T09:10:18;14.45;;;10.35;;
22965;SDS011;11649;48.090;9.754;2023-04-06T09:12:45;17.08;;;10.75;;
22965;SDS011;11649;48.090;9.754;2023-04-06T09:15:18;14.50;;;9.88;;
22965;SDS011;11649;48.090;9.754;2023-04-06T09:17:50;14.25;;;9.27;;
22965;SDS011;11649;48.090;9.754;2023-04-06T09:20:21;12.95;;;9.55;;
22965;SDS011;11649;48.090;9.754;2023-04-06T09:22:54;11.68;;;8.75;;
22965;SDS011;11649;48.090;9.754;2023-04-06T09:25:21;12.35;;;8.40;;
22965;SDS011;11649;48.090;9.754;2023-04-06T09:27:58;11.80;;;8.95;;
22965;SDS011;11649;48.090;9.754;2023-04-06T09:30:26;11.93;;;9.30;;
22965;SDS011;11649;48.090;9.754;2023-04-06T09:32:54;11.95;;;8.82;;
22965;SDS011;11649;48.090;9.754;2023-04-06T09:35:22;12.13;;;9.00;;
22965;SDS011;11649;48.090;9.754;2023-04-06T09:37:50;11.23;;;8.32;;
22965;SDS011;11649;48.090;9.754;2023-04-06T09:40:18;10.35;;;7.57;;
22965;SDS011;11649;48.090;9.754;2023-04-06T09:42:45;10.20;;;6.90;;
22965;SDS011;11649;48.090;9.754;2023-04-06T09:45:13;10.57;;;7.85;;
22965;SDS011;11649;48.090;9.754;2023-04-06T09:47:44;12.15;;;8.23;;
22965;SDS011;11649;48.090;9.754;2023-04-06T09:50:12;11.07;;;7.65;;
22965;SDS011;11649;48.090;9.754;2023-04-06T09:52:46;10.73;;;8.00;;
22965;SDS011;11649;48.090;9.754;2023-04-06T09:55:29;9.55;;;7.60;;
22965;SDS011;11649;48.090;9.754;2023-04-06T09:58:03;11.52;;;7.70;;
22965;SDS011;11649;48.090;9.754;2023-04-06T10:06:05;10.93;;;8.73;;
22965;SDS011;11649;48.090;9.754;2023-04-06T10:08:37;10.82;;;8.00;;
22965;SDS011;11649;48.090;9.754;2023-04-06T10:11:09;9.57;;;7.35;;
22965;SDS011;11649;48.090;9.754;2023-04-06T10:13:38;11.30;;;9.00;;
22965;SDS011;11649;48.090;9.754;2023-04-06T10:16:05;11.50;;;9.13;;
22965;SDS011;11649;48.090;9.754;2023-04-06T10:18:34;11.55;;;8.00;;
22965;SDS011;11649;48.090;9.754;2023-04-06T10:21:01;13.38;;;9.00;;
22965;SDS011;11649;48.090;9.754;2023-04-06T10:23:37;11.60;;;8.95;;
22965;SDS011;11649;48.090;9.754;2023-04-06T10:26:13;10.98;;;8.80;;
22965;SDS011;11649;48.090;9.754;2023-04-06T10:28:43;11.80;;;9.65;;
22965;SDS011;11649;48.090;9.754;2023-04-06T10:31:11;12.73;;;9.10;;
22965;SDS011;11649;48.090;9.754;2023-04-06T10:33:38;11.02;;;9.30;;
22965;SDS011;11649;48.090;9.754;2023-04-06T10:36:13;9.23;;;7.05;;
22965;SDS011;11649;48.090;9.754;2023-04-06T10:38:41;7.88;;;6.28;;
22965;SDS011;11649;48.090;9.754;2023-04-06T10:41:09;8.10;;;6.60;;
22965;SDS011;11649;48.090;9.754;2023-04-06T10:43:37;9.27;;;6.72;;
22965;SDS011;11649;48.090;9.754;2023-04-06T10:46:06;9.98;;;7.88;;
22965;SDS011;11649;48.090;9.754;2023-04-06T10:48:38;9.73;;;7.32;;
22965;SDS011;11649;48.090;9.754;2023-04-06T10:51:10;10.50;;;8.25;;
22965;SDS011;11649;48.090;9.754;2023-04-06T10:53:38;10.18;;;7.50;;
22965;SDS011;11649;48.090;9.754;2023-04-06T10:56:12;8.75;;;7.18;;
22965;SDS011;11649;48.090;9.754;2023-04-06T10:58:47;12.50;;;7.63;;
22965;SDS011;11649;48.090;9.754;2023-04-06T11:01:18;11.43;;;8.95;;
22965;SDS011;11649;48.090;9.754;2023-04-06T11:03:47;12.68;;;8.90;;
22965;SDS011;11649;48.090;9.754;2023-04-06T11:06:23;10.88;;;8.63;;
22965;SDS011;11649;48.090;9.754;2023-04-06T11:08:57;10.20;;;7.78;;
22965;SDS011;11649;48.090;9.754;2023-04-06T11:11:24;10.02;;;7.90;;
22965;SDS011;11649;48.090;9.754;2023-04-06T11:13:54;12.10;;;9.18;;
22965;SDS011;11649;48.090;9.754;2023-04-06T11:18:56;10.00;;;8.27;;
22965;SDS011;11649;48.090;9.754;2023-04-06T11:21:37;9.40;;;7.53;;
22965;SDS011;11649;48.090;9.754;2023-04-06T11:24:06;10.02;;;7.63;;
22965;SDS011;11649;48.090;9.754;2023-04-06T11:26:41;12.18;;;8.90;;
22965;SDS011;11649;48.090;9.754;2023-04-06T11:29:11;11.57;;;9.13;;
22965;SDS011;11649;48.090;9.754;2023-04-06T11:31:39;10.77;;;8.40;;
22965;SDS011;11649;48.090;9.754;2023-04-06T11:34:10;10.45;;;8.55;;
22965;SDS011;11649;48.090;9.754;2023-04-06T11:36:49;8.65;;;6.72;;
22965;SDS011;11649;48.090;9.754;2023-04-06T11:39:21;10.52;;;8.48;;
22965;SDS011;11649;48.090;9.754;2023-04-06T11:41:50;10.77;;;8.52;;
22965;SDS011;11649;48.090;9.754;2023-04-06T11:44:37;12.13;;;8.68;;
22965;SDS011;11649;48.090;9.754;2023-04-06T11:47:07;11.15;;;8.43;;
22965;SDS011;11649;48.090;9.754;2023-04-06T11:49:38;11.00;;;8.43;;
22965;SDS011;11649;48.090;9.754;2023-04-06T11:52:20;7.82;;;6.47;;
22965;SDS011;11649;48.090;9.754;2023-04-06T11:54:49;8.35;;;6.72;;
22965;SDS011;11649;48.090;9.754;2023-04-06T11:57:19;7.65;;;6.25;;
22965;SDS011;11649;48.090;9.754;2023-04-06T11:59:47;10.10;;;8.57;;
22965;SDS011;11649;48.090;9.754;2023-04-06T12:02:14;9.55;;;7.88;;
22965;SDS011;11649;48.090;9.754;2023-04-06T12:04:40;11.48;;;7.90;;
22965;SDS011;11649;48.090;9.754;2023-04-06T12:07:07;8.68;;;7.38;;
22965;SDS011;11649;48.090;9.754;2023-04-06T12:09:34;9.85;;;7.28;;
22965;SDS011;11649;48.090;9.754;2023-04-06T12:12:02;10.80;;;7.32;;
22965;SDS011;11649;48.090;9.754;2023-04-06T12:14:29;9.60;;;6.78;;
22965;SDS011;11649;48.090;9.754;2023-04-06T12:16:57;6.53;;;5.47;;
22965;SDS011;11649;48.090;9.754;2023-04-06T12:19:24;7.88;;;6.07;;
22965;SDS011;11649;48.090;9.754;2023-04-06T12:21:52;7.15;;;6.32;;
22965;SDS011;11649;48.090;9.754;2023-04-06T12:24:20;8.70;;;6.75;;
22965;SDS011;11649;48.090;9.754;2023-04-06T12:26:47;9.75;;;6.75;;
22965;SDS011;11649;48.090;9.754;2023-04-06T12:29:19;8.23;;;6.20;;
22965;SDS011;11649;48.090;9.754;2023-04-06T12:31:46;8.90;;;6.43;;
22965;SDS011;11649;48.090;9.754;2023-04-06T12:34:12;7.93;;;6.10;;
22965;SDS011;11649;48.090;9.754;2023-04-06T12:36:39;8.00;;;5.63;;
22965;SDS011;11649;48.090;9.754;2023-04-06T12:39:06;7.50;;;5.78;;
22965;SDS011;11649;48.090;9.754;2023-04-06T12:41:33;8.77;;;5.60;;
22965;SDS011;11649;48.090;9.754;2023-04-06T12:44:00;7.57;;;5.15;;
22965;SDS011;11649;48.090;9.754;2023-04-06T12:46:28;5.90;;;5.22;;
22965;SDS011;11649;48.090;9.754;2023-04-06T12:48:58;6.70;;;5.25;;
22965;SDS011;11649;48.090;9.754;2023-04-06T12:51:28;6.93;;;5.40;;
22965;SDS011;11649;48.090;9.754;2023-04-06T12:53:57;8.13;;;5.78;;
22965;SDS011;11649;48.090;9.754;2023-04-06T12:56:24;8.30;;;5.88;;
22965;SDS011;11649;48.090;9.754;2023-04-06T12:58:51;6.70;;;5.60;;
22965;SDS011;11649;48.090;9.754;2023-04-06T13:01:19;6.72;;;5.20;;
22965;SDS011;11649;48.090;9.754;2023-04-06T13:03:46;7.30;;;5.50;;
22965;SDS011;11649;48.090;9.754;2023-04-06T13:06:13;7.82;;;6.00;;
22965;SDS011;11649;48.090;9.754;2023-04-06T13:08:41;7.00;;;6.00;;
22965;SDS011;11649;48.090;9.754;2023-04-06T13:11:09;10.45;;;8.70;;
22965;SDS011;11649;48.090;9.754;2023-04-06T13:13:36;8.13;;;6.10;;
22965;SDS011;11649;48.090;9.754;2023-04-06T13:16:04;7.70;;;5.63;;
22965;SDS011;11649;48.090;9.754;2023-04-06T13:18:35;8.43;;;5.30;;
22965;SDS011;11649;48.090;9.754;2023-04-06T13:21:05;6.32;;;5.40;;
22965;SDS011;11649;48.090;9.754;2023-04-06T13:23:33;8.43;;;5.70;;
22965;SDS011;11649;48.090;9.754;2023-04-06T13:26:05;8.32;;;6.43;;
22965;SDS011;11649;48.090;9.754;2023-04-06T13:28:35;7.78;;;5.60;;
22965;SDS011;11649;48.090;9.754;2023-04-06T13:31:04;6.68;;;5.80;;
22965;SDS011;11649;48.090;9.754;2023-04-06T13:33:32;8.00;;;6.10;;
22965;SDS011;11649;48.090;9.754;2023-04-06T13:35:59;7.70;;;5.63;;
22965;SDS011;11649;48.090;9.754;2023-04-06T13:38:26;7.72;;;5.97;;
22965;SDS011;11649;48.090;9.754;2023-04-06T13:40:53;7.28;;;4.72;;
22965;SDS011;11649;48.090;9.754;2023-04-06T13:43:20;6.07;;;5.18;;
22965;SDS011;11649;48.090;9.754;2023-04-06T13:45:50;6.35;;;5.28;;
22965;SDS011;11649;48.090;9.754;2023-04-06T13:48:18;6.50;;;5.80;;
22965;SDS011;11649;48.090;9.754;2023-04-06T13:50:45;6.43;;;5.13;;
22965;SDS011;11649;48.090;9.754;2023-04-06T13:53:12;9.48;;;5.80;;
22965;SDS011;11649;48.090;9.754;2023-04-06T13:55:39;7.68;;;5.80;;
22965;SDS011;11649;48.090;9.754;2023-04-06T13:58:06;8.32;;;6.82;;
22965;SDS011;11649;48.090;9.754;2023-04-06T14:00:33;6.97;;;6.28;;
22965;SDS011;11649;48.090;9.754;2023-04-06T14:03:00;7.72;;;5.93;;
22965;SDS011;11649;48.090;9.754;2023-04-06T14:05:30;5.95;;;5.20;;
22965;SDS011;11649;48.090;9.754;2023-04-06T14:08:00;6.68;;;5.15;;
22965;SDS011;11649;48.090;9.754;2023-04-06T14:10:27;5.68;;;4.13;;
22965;SDS011;11649;48.090;9.754;2023-04-06T14:12:54;7.53;;;6.50;;
22965;SDS011;11649;48.090;9.754;2023-04-06T14:15:22;6.50;;;4.95;;
22965;SDS011;11649;48.090;9.754;2023-04-06T14:17:50;6.93;;;5.55;;
22965;SDS011;11649;48.090;9.754;2023-04-06T14:20:17;6.72;;;6.03;;
22965;SDS011;11649;48.090;9.754;2023-04-06T14:22:45;6.60;;;5.50;;
22965;SDS011;11649;48.090;9.754;2023-04-06T14:25:13;6.65;;;5.50;;
22965;SDS011;11649;48.090;9.754;2023-04-06T14:27:39;6.88;;;5.78;;
22965;SDS011;11649;48.090;9.754;2023-04-06T14:30:06;7.43;;;5.93;;
22965;SDS011;11649;48.090;9.754;2023-04-06T14:32:34;7.28;;;5.80;;
22965;SDS011;11649;48.090;9.754;2023-04-06T14:35:03;6.97;;;5.07;;
22965;SDS011;11649;48.090;9.754;2023-04-06T14:37:33;5.97;;;4.75;;
22965;SDS011;11649;48.090;9.754;2023-04-06T14:39:59;4.88;;;4.07;;
22965;SDS011;11649;48.090;9.754;2023-04-06T14:42:26;5.93;;;4.32;;
22965;SDS011;11649;48.090;9.754;2023-04-06T14:44:53;5.05;;;4.55;;